Observations for BRINDISI, Italy (LIBR)

LIBR 191950Z 18005KT CAVOK 20/16 Q1019  
LIBR 191920Z 17005KT CAVOK 20/16 Q1019  
LIBR 191850Z 18005KT CAVOK 20/16 Q1019  
LIBR 191820Z 18005KT CAVOK 20/16 Q1018  
LIBR 191750Z 19005KT CAVOK 21/16 Q1018  
LIBR 191720Z 18004KT CAVOK 21/16 Q1018  
LIBR 191650Z 15005KT CAVOK 21/17 Q1018  
LIBR 191620Z 13007KT CAVOK 22/18 Q1018  
LIBR 191550Z 13008KT 9999 FEW040 22/18 Q1018
LIBR 191520Z 13008KT 9999 FEW040 22/18 Q1017
LIBR 191450Z 12009KT 9999 FEW040 23/17 Q1017
LIBR 191420Z 11009KT 9999 FEW040 23/18 Q1017
LIBR 191350Z 11010KT 9999 FEW040 22/17 Q1017
LIBR 191320Z 11009KT 9999 FEW040 23/17 Q1017
LIBR 191250Z 10010KT 9999 FEW040 23/16 Q1018
LIBR 191220Z 10010KT 070V130 9999 FEW040 23/16 Q1018
LIBR 191150Z 10010KT 9999 FEW030 23/17 Q1018
LIBR 191120Z 09009KT 9999 SCT030 23/16 Q1018
LIBR 191050Z 08009KT 9999 SCT030 23/16 Q1018
LIBR 191020Z 09009KT 9999 SCT030 23/15 Q1018
LIBR 190950Z 08008KT 9999 FEW030 22/17 Q1018
LIBR 190920Z 09007KT 9999 FEW030 22/17 Q1018
LIBR 190850Z 09006KT 060V120 CAVOK 22/17 Q1019  
LIBR 190820Z 13004KT 100V160 CAVOK 21/17 Q1019  
LIBR 190750Z 16003KT CAVOK 21/18 Q1019  
LIBR 190720Z VRB02KT CAVOK 19/17 Q1019  
LIBR 190650Z 21003KT 170V230 8000 NSC 17/16 Q1019   
LIBR 190620Z 22004KT 8000 NSC 15/14 Q1018   
LIBR 190550Z 22004KT 8000 NSC 14/13 Q1018   
LIBR 190520Z 23005KT 8000 NSC 14/13 Q1018   
LIBR 190450Z 20003KT CAVOK 14/13 Q1018  
LIBR 190420Z 22003KT CAVOK 13/13 Q1018  
LIBR 190350Z 23003KT CAVOK 13/13 Q1018  
LIBR 190320Z 22002KT CAVOK 14/13 Q1018  
LIBR 190250Z 20002KT CAVOK 14/13 Q1018  
LIBR 190150Z 23004KT CAVOK 14/14 Q1018  
LIBR 190120Z 24005KT CAVOK 15/14 Q1018  
LIBR 190020Z 22001KT CAVOK 15/14 Q1018  
LIBR 182350Z 22003KT CAVOK 15/14 Q1018  
LIBR 182320Z 23002KT CAVOK 16/15 Q1017  
LIBR 182250Z 24002KT CAVOK 17/15 Q1018  
LIBR 182220Z 24003KT CAVOK 16/15 Q1018  
LIBR 182150Z 25003KT CAVOK 16/15 Q1018  
LIBR 182120Z 28003KT CAVOK 17/15 Q1018  
LIBR 182050Z VRB01KT CAVOK 18/16 Q1018  
LIBR 182020Z 22005KT CAVOK 18/16 Q1018  
LIBR 181950Z 24004KT CAVOK 18/16 Q1018